createdAt,value
2019-05-17T00:00:51.385Z,100021.84
2019-05-17T00:05:57.026Z,100044.42
2019-05-17T00:11:00.675Z,100029.19
2019-05-17T00:16:07.002Z,100038.92
2019-05-17T00:21:10.271Z,100035.89
2019-05-17T00:26:16.269Z,100030.26
2019-05-17T00:31:19.547Z,100021.62
2019-05-17T00:36:23.394Z,100012.22
2019-05-17T00:41:27.207Z,100007.97
2019-05-17T00:46:30.964Z,99999.56
2019-05-17T00:51:36.698Z,99999.42
2019-05-17T00:56:40.425Z,99987.92
2019-05-17T01:01:44.270Z,99990.84
2019-05-17T01:06:49.822Z,99990.84
2019-05-17T01:11:53.629Z,99976.05
2019-05-17T01:16:57.528Z,99979.31
2019-05-17T01:22:01.325Z,99975.64
2019-05-17T01:27:06.544Z,99975.64
2019-05-17T01:32:10.683Z,99985.39
2019-05-17T01:37:16.984Z,99982.78
2019-05-17T01:42:20.058Z,99979.48
2019-05-17T01:47:23.875Z,99979.48
2019-05-17T01:52:27.672Z,99971.45
2019-05-17T01:57:31.770Z,99961.72
2019-05-17T02:02:38.900Z,99952.02
2019-05-17T02:07:42.699Z,99952.02
2019-05-17T02:12:49.004Z,99945.31
2019-05-17T02:17:52.083Z,99934.71
2019-05-17T02:22:56.487Z,99926.66
2019-05-17T02:28:01.561Z,99921.30
2019-05-17T02:33:05.732Z,99928.23
2019-05-17T02:38:09.496Z,99928.23
2019-05-17T02:43:13.489Z,99922.14
2019-05-17T02:48:17.336Z,99919.59
2019-05-17T02:53:22.937Z,99919.59
2019-05-17T02:58:26.725Z,99911.81
2019-05-17T03:03:32.340Z,99918.90
2019-05-17T03:08:36.419Z,99920.02
2019-05-17T03:13:43.211Z,99917.11
2019-05-17T03:18:45.805Z,99913.32
2019-05-17T03:23:49.740Z,99912.34
2019-05-17T03:28:53.933Z,99913.68
2019-05-17T03:33:57.936Z,99914.94
2019-05-17T03:39:03.160Z,99914.94
2019-05-17T03:44:07.299Z,99915.52
2019-05-17T03:49:13.141Z,99911.84
2019-05-17T03:54:16.610Z,99917.97
2019-05-17T03:59:20.379Z,99917.97
2019-05-17T04:04:24.284Z,99918.73
2019-05-17T04:09:28.099Z,99914.81
2019-05-17T04:14:33.496Z,99916.78
2019-05-17T04:19:37.558Z,99916.78
2019-05-17T04:24:43.866Z,99916.16
2019-05-17T04:29:46.866Z,99925.95
2019-05-17T04:34:52.534Z,99916.91
2019-05-17T04:39:56.415Z,99916.91
2019-05-17T04:45:03.601Z,99915.48
2019-05-17T04:50:06.249Z,99915.48
2019-05-17T04:55:13.286Z,99920.00
2019-05-17T05:00:15.722Z,99918.53
2019-05-17T05:05:22.447Z,99918.53
2019-05-17T05:10:25.188Z,99909.50
2019-05-17T05:15:44.152Z,99908.66
2019-05-17T05:20:47.644Z,99906.95
2019-05-17T05:25:52.227Z,99892.48
2019-05-17T05:30:56.246Z,99905.88
2019-05-17T05:36:02.060Z,99906.11
2019-05-17T05:41:05.599Z,99899.17
2019-05-17T05:46:11.539Z,99890.41
2019-05-17T05:51:14.913Z,99895.64
2019-05-17T05:56:18.686Z,99889.42
2019-05-17T06:01:22.508Z,99889.42
2019-05-17T06:06:26.302Z,99895.64
2019-05-17T06:11:32.072Z,99887.59
2019-05-17T06:16:35.627Z,99891.12
2019-05-17T06:21:39.502Z,99891.12
2019-05-17T06:26:43.539Z,99892.59
2019-05-17T06:31:47.448Z,99892.59
2019-05-17T06:36:52.820Z,99888.19
2019-05-17T06:41:56.798Z,99888.19
2019-05-17T06:47:02.698Z,99884.06
2019-05-17T06:52:06.116Z,99877.01
2019-05-17T06:57:09.942Z,99885.27
2019-05-17T07:02:13.764Z,99880.81
2019-05-17T07:07:30.510Z,99878.75
2019-05-17T07:12:34.554Z,99900.38
2019-05-17T07:17:40.036Z,99900.38
2019-05-17T07:22:43.865Z,99875.73
2019-05-17T07:27:50.092Z,99875.73
2019-05-17T07:32:53.295Z,99876.86
2019-05-17T07:37:59.343Z,99886.95
2019-05-17T07:43:10.500Z,99871.57
2019-05-17T07:48:09.794Z,99881.95
2019-05-17T07:53:13.796Z,99865.44
2019-05-17T07:58:17.598Z,99876.73
2019-05-17T08:03:24.707Z,99865.08
2019-05-17T08:08:26.893Z,99855.64
2019-05-17T08:13:33.673Z,99855.05
2019-05-17T08:18:36.395Z,99847.29
2019-05-17T08:23:40.292Z,99847.29
2019-05-17T08:28:44.076Z,99840.59
2019-05-17T08:33:49.769Z,99847.66
2019-05-17T08:38:53.663Z,99846.98
2019-05-17T08:43:57.453Z,99838.84
2019-05-17T08:49:01.245Z,99844.23
2019-05-17T08:54:05.024Z,99844.23
2019-05-17T08:59:09.603Z,99829.75
2019-05-17T09:04:13.608Z,99813.39
2019-05-17T09:09:17.490Z,99813.39
2019-05-17T09:14:21.540Z,99814.24
2019-05-17T09:19:25.316Z,99806.44
2019-05-17T09:24:30.062Z,99794.44
2019-05-17T09:29:33.906Z,99782.99
2019-05-17T09:34:37.716Z,99778.81
2019-05-17T09:39:41.545Z,99778.32
2019-05-17T09:44:45.414Z,99773.45
2019-05-17T09:49:50.137Z,99772.81
2019-05-17T09:54:54.059Z,99772.81
2019-05-17T10:00:00.013Z,99758.17
2019-05-17T10:05:03.572Z,99760.72
2019-05-17T10:10:10.127Z,99750.20
2019-05-17T10:15:13.875Z,99738.41
2019-05-17T10:20:19.913Z,99738.34
2019-05-17T10:25:23.427Z,99740.81
2019-05-17T10:30:29.809Z,99738.95
2019-05-17T10:35:32.835Z,99736.63
2019-05-17T10:40:36.628Z,99738.10
2019-05-17T10:45:40.585Z,99731.26
2019-05-17T10:50:44.384Z,99728.76
2019-05-17T10:55:49.788Z,99729.00
2019-05-17T11:00:53.820Z,99729.00
2019-05-17T11:05:59.701Z,99730.12
2019-05-17T11:11:05.126Z,99727.09
2019-05-17T11:16:08.614Z,99722.08
2019-05-17T11:21:12.454Z,99718.55
2019-05-17T11:26:16.396Z,99715.86
2019-05-17T11:31:20.208Z,99715.86
2019-05-17T11:36:24.020Z,99718.44
2019-05-17T11:41:27.801Z,99718.44
2019-05-17T11:46:36.245Z,99714.03
2019-05-17T11:51:37.181Z,99714.03
2019-05-17T11:56:40.971Z,99711.21
2019-05-17T12:01:44.822Z,99711.59
2019-05-17T12:06:48.644Z,99706.91
2019-05-17T12:11:52.541Z,99699.73
2019-05-17T12:16:56.504Z,99696.41
2019-05-17T12:22:00.377Z,99687.23
2019-05-17T12:27:04.202Z,99681.01
2019-05-17T12:32:08.005Z,99670.05
2019-05-17T12:37:11.790Z,99670.05
2019-05-17T12:42:15.578Z,99663.59
2019-05-17T12:47:19.380Z,99665.67
2019-05-17T12:52:23.147Z,99665.67
2019-05-17T12:57:26.987Z,99665.58
2019-05-17T13:02:30.767Z,99663.25
2019-05-17T13:07:34.645Z,99657.20
2019-05-17T13:12:38.451Z,99649.33
2019-05-17T13:17:42.290Z,99653.08
2019-05-17T13:22:46.090Z,99653.08
2019-05-17T13:27:49.885Z,99652.52
2019-05-17T13:32:53.665Z,99649.41
2019-05-17T13:37:57.522Z,99636.45
2019-05-17T13:43:01.311Z,99628.44
2019-05-17T13:48:05.120Z,99628.44
2019-05-17T14:03:42.546Z,99616.77
2019-05-17T14:08:46.441Z,99616.57
2019-05-17T14:13:50.233Z,99608.11
2019-05-17T14:18:54.174Z,99611.55
2019-05-17T14:23:57.974Z,99609.86
2019-05-17T14:29:01.833Z,99610.16
2019-05-17T14:34:05.661Z,99609.16
2019-05-17T14:39:09.466Z,99602.23
2019-05-17T14:44:13.278Z,99603.44
2019-05-17T14:49:17.084Z,99603.44
2019-05-17T14:54:20.922Z,99604.08
2019-05-17T14:59:24.761Z,99594.23
2019-05-17T15:04:28.550Z,99590.65
2019-05-17T15:49:37.754Z,99562.79
2019-05-17T15:54:41.564Z,99571.88
2019-05-17T15:59:45.448Z,99556.79
2019-05-17T16:09:57.733Z,99558.03
2019-05-17T16:15:01.663Z,99541.29
2019-05-17T16:20:05.640Z,99538.70
2019-05-17T16:25:09.484Z,99538.70
2019-05-17T16:30:13.275Z,99540.48
2019-05-17T16:35:17.058Z,99540.48
2019-05-17T16:40:20.944Z,99529.39
2019-05-17T16:45:24.777Z,99529.39
2019-05-17T16:50:29.421Z,99518.06
2019-05-17T16:55:33.347Z,99519.72
2019-05-17T17:00:38.930Z,99524.01
2019-05-17T17:05:42.783Z,99529.70
2019-05-17T17:10:46.635Z,99529.70
2019-05-17T17:15:50.536Z,99522.50
2019-05-17T17:20:54.336Z,99522.50
2019-05-17T17:26:07.933Z,99522.15
2019-05-17T17:31:14.686Z,99505.56
2019-05-17T17:36:19.778Z,99516.11
2019-05-17T17:41:26.294Z,99519.50
2019-05-17T17:46:29.354Z,99518.68
2019-05-17T17:51:33.186Z,99508.58
2019-05-17T17:56:37.021Z,99508.58
2019-05-17T18:01:40.863Z,99508.02
2019-05-17T18:06:44.766Z,99508.02
2019-05-17T18:11:48.539Z,99515.45
2019-05-17T18:16:52.438Z,99515.64
2019-05-17T18:21:56.234Z,99513.64
2019-05-17T18:27:00.013Z,99525.85
2019-05-17T18:32:03.819Z,99513.02
2019-05-17T18:37:07.629Z,99524.57
2019-05-17T18:42:11.455Z,99528.89
2019-05-17T18:47:15.258Z,99521.03
2019-05-17T18:52:19.079Z,99532.84
2019-05-17T18:57:22.904Z,99532.84
2019-05-17T19:07:36.079Z,99537.84
2019-05-17T19:12:39.934Z,99547.14
2019-05-17T19:17:43.780Z,99547.14
2019-05-17T19:22:47.644Z,99553.56
2019-05-17T19:27:51.449Z,99552.30
2019-05-17T19:32:55.256Z,99552.30
2019-05-17T19:37:59.048Z,99560.86
2019-05-17T19:43:02.936Z,99547.06
2019-05-17T19:48:06.882Z,99557.02
2019-05-17T19:53:10.757Z,99566.38
2019-05-17T19:58:14.620Z,99566.38
2019-05-17T20:03:22.976Z,99562.07
2019-05-17T20:08:26.879Z,99565.39
2019-05-17T20:13:30.756Z,99565.39
2019-05-17T20:18:34.536Z,99555.62
2019-05-17T20:23:38.343Z,99555.62
2019-05-17T20:28:42.135Z,99561.42
2019-05-17T20:33:45.916Z,99561.42
2019-05-17T20:38:49.711Z,99559.73
2019-05-17T20:43:53.539Z,99552.81
2019-05-17T20:48:57.363Z,99554.31
2019-05-17T20:54:01.169Z,99556.50
2019-05-17T20:59:05.014Z,99554.66
2019-05-17T21:04:08.845Z,99554.66
2019-05-17T21:09:12.625Z,99551.42
2019-05-17T21:14:16.410Z,99552.77
2019-05-17T21:19:20.196Z,99553.88
2019-05-17T21:24:23.980Z,99553.88
2019-05-17T21:29:27.783Z,99555.08
2019-05-17T21:34:31.554Z,99552.05
2019-05-17T21:39:35.428Z,99552.05
2019-05-17T21:44:39.228Z,99558.27
2019-05-17T21:49:43.037Z,99555.03
2019-05-17T21:54:46.856Z,99551.84
2019-05-17T21:59:50.655Z,99549.16
2019-05-17T22:04:54.468Z,99545.77
2019-05-17T22:09:58.414Z,99545.77
2019-05-17T22:15:02.222Z,99541.25
2019-05-17T22:20:06.277Z,99541.25
2019-05-17T22:25:10.048Z,99545.92
2019-05-17T22:30:13.875Z,99542.73
2019-05-17T22:35:17.753Z,99544.00
2019-05-17T22:40:21.540Z,99548.38
2019-05-17T22:45:25.351Z,99548.38
2019-05-17T22:50:29.116Z,99536.09
2019-05-17T22:55:32.882Z,99520.69
2019-05-17T23:00:36.774Z,99528.53
2019-05-17T23:05:40.541Z,99513.47
2019-05-17T23:10:44.446Z,99526.69
2019-05-17T23:16:01.939Z,99526.69
2019-05-17T23:21:05.715Z,99526.53
2019-05-17T23:26:09.481Z,99525.49
2019-05-17T23:31:13.252Z,99523.34
2019-05-17T23:36:17.061Z,99523.34
2019-05-17T23:41:20.864Z,99518.81
2019-05-17T23:46:24.632Z,99517.92
2019-05-17T23:51:28.430Z,99518.63
2019-05-17T23:56:32.227Z,99520.47
